Bay View, New Zealand
Current Conditions -  °F | °C
As of 2:30 PM on Thursday 23 Oct 2014 (Local Time) from NZWN Reporting Station
Overcast Overcast  
Wind Chill: 57°   Ceiling: 2000
Heat Index: 57°   Visibility: 6mi
Dew Point: 48°   Wind: 32mph
Humidity: 72%   Direction: 360°N
Pressure: 29.8"   Gusts: 45mph
Location:  39.43°S, 176.87°E
Report Text: NZWN 230230Z AUTO 36028G39KT 9999 OVC020/// 14/09 Q1009 NOSIG
Loading
Personal Weather Stations






























Interactive Weather Map
Tropical Storm Tracking
New forecast layout! Learn more

10-Day Weather Forecast

Advertisements
Track Severe Weather on mobile